createdAt,value
2022-09-10T00:01:43.274Z,22.17
2022-09-10T00:04:15.745Z,21.73
2022-09-10T00:06:46.143Z,28.70
2022-09-10T00:09:16.069Z,25.05
2022-09-10T00:11:46.169Z,20.55
2022-09-10T00:14:20.054Z,26.55
2022-09-10T00:16:49.865Z,29.65
2022-09-10T00:19:22.303Z,20.13
2022-09-10T00:21:52.199Z,25.20
2022-09-10T00:24:22.960Z,21.65
2022-09-10T00:26:53.371Z,24.85
2022-09-10T13:14:32.360Z,99.00
2022-09-10T13:17:01.566Z,78.00
2022-09-10T13:20:06.820Z,57.83
2022-09-10T13:22:59.446Z,55.47
2022-09-10T13:25:35.645Z,62.45
2022-09-10T13:28:26.605Z,55.38
2022-09-10T13:31:05.432Z,56.25
2022-09-10T13:33:45.949Z,57.45
2022-09-10T13:36:27.107Z,64.78
2022-09-10T13:39:46.679Z,66.28
2022-09-10T13:42:35.774Z,67.32
2022-09-10T13:45:23.862Z,74.07
2022-09-10T13:48:02.693Z,76.82
2022-09-10T13:50:41.356Z,85.82
2022-09-10T13:53:14.107Z,83.53
2022-09-10T13:55:54.949Z,93.53
2022-09-10T13:58:28.966Z,88.15
2022-09-10T14:01:00.503Z,107.97
2022-09-10T14:03:34.876Z,102.78
2022-09-10T14:06:05.605Z,92.82
2022-09-10T14:08:38.939Z,107.88
2022-09-10T14:11:16.033Z,104.35
2022-09-10T14:13:48.906Z,122.18
2022-09-10T14:16:27.243Z,113.13
2022-09-10T14:19:03.597Z,118.05
2022-09-10T14:21:33.307Z,112.65
2022-09-10T14:24:02.633Z,121.25
2022-09-10T14:26:34.151Z,121.75
2022-09-10T14:29:05.007Z,114.28
2022-09-10T14:31:38.044Z,131.73
2022-09-10T14:34:34.093Z,133.40
2022-09-10T14:37:03.851Z,159.65
2022-09-10T14:39:33.721Z,201.40
2022-09-10T14:42:31.182Z,203.48
2022-09-10T14:45:00.432Z,192.43
2022-09-10T14:47:35.213Z,196.32
2022-09-10T14:50:32.720Z,187.43
2022-09-10T14:53:02.577Z,148.43
2022-09-10T14:55:34.506Z,189.18
2022-09-10T14:58:03.719Z,131.68
2022-09-10T15:00:33.020Z,123.53
2022-09-10T15:03:04.768Z,116.80
2022-09-10T15:05:35.543Z,141.82
2022-09-10T15:08:05.047Z,149.63
2022-09-10T15:10:34.241Z,140.63
2022-09-10T15:13:03.484Z,134.95
2022-09-10T15:15:32.679Z,130.70
2022-09-10T15:18:01.889Z,118.10
2022-09-10T15:20:31.846Z,126.38
2022-09-10T15:23:02.637Z,132.85
2022-09-10T15:25:38.572Z,129.15
2022-09-10T15:28:08.828Z,126.53
2022-09-10T15:30:38.148Z,120.03
2022-09-10T15:33:08.531Z,120.35
2022-09-10T15:35:40.268Z,116.22
2022-09-10T15:38:11.573Z,126.72
2022-09-10T15:40:40.814Z,123.35
2022-09-10T15:43:10.011Z,116.88
2022-09-10T15:45:40.281Z,122.88
2022-09-10T15:48:09.399Z,126.10
2022-09-10T15:50:39.582Z,115.68
2022-09-10T15:53:12.072Z,113.40
2022-09-10T15:55:41.366Z,115.05
2022-09-10T15:58:10.518Z,108.68
2022-09-10T16:00:39.690Z,95.75
2022-09-10T16:03:08.894Z,107.72
2022-09-10T16:05:39.178Z,100.30
2022-09-10T16:08:08.343Z,106.05
2022-09-10T16:10:42.576Z,103.30
2022-09-10T16:13:11.794Z,113.18
2022-09-10T16:15:41.079Z,107.65
2022-09-10T16:18:10.263Z,109.70
2022-09-10T16:20:39.954Z,109.70
2022-09-10T16:23:09.498Z,114.20
2022-09-10T16:25:39.841Z,105.85
2022-09-10T16:28:10.945Z,115.32
2022-09-10T16:30:40.637Z,110.97
2022-09-10T16:33:10.430Z,119.47
2022-09-10T16:35:39.663Z,102.25
2022-09-10T16:38:09.823Z,168.27
2022-09-10T16:40:39.020Z,122.70
2022-09-10T16:43:08.325Z,153.93
2022-09-10T16:45:38.951Z,143.65
2022-09-10T16:48:08.150Z,125.78
2022-09-10T16:50:37.690Z,126.35
2022-09-10T16:53:11.413Z,111.38
2022-09-10T16:55:41.279Z,96.35
2022-09-10T16:58:11.333Z,121.53
2022-09-10T17:00:43.314Z,110.95
2022-09-10T17:03:12.618Z,125.15
2022-09-10T17:05:41.890Z,109.75
2022-09-10T17:08:15.467Z,117.43
2022-09-10T17:10:45.157Z,104.07
2022-09-10T17:13:14.570Z,119.20
2022-09-10T17:15:45.845Z,106.68
2022-09-10T17:18:15.743Z,104.95
2022-09-10T17:20:45.238Z,110.40
2022-09-10T17:23:14.555Z,109.93
2022-09-10T17:25:43.729Z,103.75
2022-09-10T17:28:13.354Z,107.18
2022-09-10T17:30:46.108Z,97.57
2022-09-10T17:33:16.566Z,95.85
2022-09-10T17:35:46.079Z,99.88
2022-09-10T17:38:15.187Z,99.25
2022-09-10T17:40:44.747Z,90.13
2022-09-10T17:43:14.238Z,84.10
2022-09-10T17:45:44.926Z,102.82
2022-09-10T17:48:14.214Z,107.22
2022-09-10T17:50:49.096Z,110.53
2022-09-10T17:53:18.470Z,119.22
2022-09-10T17:55:48.123Z,129.27
2022-09-10T17:58:17.602Z,127.18
2022-09-10T18:00:49.094Z,128.52
2022-09-10T18:03:19.557Z,121.57
2022-09-10T18:05:48.721Z,123.32
2022-09-10T18:08:18.192Z,120.50
2022-09-10T18:10:47.570Z,111.60
2022-09-10T18:13:17.076Z,127.35
2022-09-10T18:15:47.945Z,127.25
2022-09-10T18:18:17.155Z,148.95
2022-09-10T18:20:46.510Z,138.32
2022-09-10T18:23:16.360Z,140.10
2022-09-10T18:25:49.656Z,157.05
2022-09-10T18:28:19.191Z,146.10
2022-09-10T18:30:50.051Z,159.77
2022-09-10T18:33:19.332Z,142.43
2022-09-10T18:35:50.662Z,143.05
2022-09-10T18:38:19.972Z,139.05
2022-09-10T18:40:49.373Z,132.32
2022-09-10T18:43:18.725Z,123.65
2022-09-10T18:45:49.441Z,131.70
2022-09-10T18:48:18.875Z,119.57
2022-09-10T18:50:49.273Z,110.00
2022-09-10T18:53:18.819Z,110.32
2022-09-10T18:55:47.967Z,95.80
2022-09-10T18:58:17.143Z,104.45
2022-09-10T19:00:46.337Z,93.03
2022-09-10T19:03:17.014Z,100.32
2022-09-10T19:05:46.166Z,92.22
2022-09-10T19:08:17.887Z,96.18
2022-09-10T19:10:47.107Z,90.72
2022-09-10T19:13:16.297Z,95.30
2022-09-10T19:15:45.526Z,83.82
2022-09-10T19:18:16.258Z,94.80
2022-09-10T19:20:45.502Z,82.43
2022-09-10T19:23:19.793Z,84.25
2022-09-10T19:25:54.358Z,93.63
2022-09-10T19:28:24.164Z,85.35
2022-09-10T19:30:53.785Z,85.22
2022-09-10T19:33:24.492Z,93.18
2022-09-10T19:35:56.612Z,88.10
2022-09-10T19:38:46.851Z,88.18
2022-09-10T19:41:19.298Z,94.78
2022-09-10T19:43:51.086Z,97.80
2022-09-10T19:46:22.349Z,86.82
2022-09-10T19:48:53.679Z,86.68
2022-09-10T19:51:23.947Z,73.72
2022-09-10T19:53:53.621Z,83.60
2022-09-10T19:56:25.611Z,77.57
2022-09-10T19:58:57.190Z,81.57
2022-09-10T20:01:28.307Z,71.63
2022-09-10T20:04:00.400Z,62.75
2022-09-10T20:06:35.972Z,69.80
2022-09-10T20:09:06.450Z,61.50
2022-09-10T20:11:36.813Z,63.95
2022-09-10T20:14:08.707Z,58.00
2022-09-10T20:16:39.267Z,78.28
2022-09-10T20:19:11.331Z,66.13
2022-09-10T20:21:40.578Z,68.75
2022-09-10T20:24:10.177Z,57.58
2022-09-10T20:26:41.522Z,63.78
2022-09-10T20:29:13.907Z,60.33
2022-09-10T20:31:44.179Z,58.15
2022-09-10T20:34:16.056Z,57.15
2022-09-10T20:36:45.579Z,56.97
2022-09-10T20:39:16.495Z,64.15
2022-09-10T20:41:45.913Z,63.92
2022-09-10T20:44:17.808Z,60.80
2022-09-10T20:46:47.209Z,60.30
2022-09-10T20:49:18.378Z,49.17
2022-09-10T20:51:47.525Z,52.22
2022-09-10T20:54:18.956Z,56.08
2022-09-10T20:56:48.850Z,52.33
2022-09-10T20:59:20.865Z,51.20
2022-09-10T21:01:52.793Z,47.70
2022-09-10T21:04:23.893Z,52.28
2022-09-10T21:06:53.030Z,54.30
2022-09-10T21:09:22.108Z,55.35
2022-09-10T21:11:51.235Z,56.97
2022-09-10T21:14:20.361Z,53.65
2022-09-10T21:16:49.468Z,52.17
2022-09-10T21:19:19.406Z,52.15
2022-09-10T21:21:50.396Z,50.40
2022-09-10T21:24:22.879Z,47.95
2022-09-10T21:26:53.674Z,50.45
2022-09-10T21:29:23.973Z,49.00
2022-09-10T21:31:55.061Z,50.08
2022-09-10T21:34:25.203Z,46.58
2022-09-10T21:36:55.864Z,43.67
2022-09-10T21:39:24.978Z,44.30
2022-09-10T21:41:54.144Z,36.20
2022-09-10T21:44:25.522Z,46.80
2022-09-10T21:46:55.001Z,44.40
2022-09-10T21:49:24.311Z,45.83
2022-09-10T21:52:01.969Z,43.00
2022-09-10T21:54:31.049Z,45.05
2022-09-10T21:57:00.173Z,35.88
2022-09-10T21:59:29.294Z,40.88
2022-09-10T22:01:58.569Z,36.55
2022-09-10T22:04:28.063Z,38.75
2022-09-10T22:06:59.091Z,41.88
2022-09-10T22:09:28.266Z,40.55
2022-09-10T22:11:59.649Z,41.88
2022-09-10T22:14:28.831Z,38.03
2022-09-10T22:16:59.213Z,37.25
2022-09-10T22:19:28.471Z,42.47
2022-09-10T22:21:59.106Z,36.30
2022-09-10T22:24:28.227Z,41.97
2022-09-10T22:26:57.354Z,39.65
2022-09-10T22:29:26.725Z,41.85
2022-09-10T22:31:56.021Z,33.67
2022-09-10T22:34:25.413Z,26.35
2022-09-10T22:36:54.601Z,29.08
2022-09-10T22:39:25.454Z,36.00
2022-09-10T22:41:54.562Z,36.78
2022-09-10T22:44:24.919Z,28.40
2022-09-10T22:46:54.052Z,32.47
2022-09-10T22:49:23.222Z,33.88
2022-09-10T22:51:52.294Z,31.33
2022-09-10T22:54:21.391Z,32.70
2022-09-10T22:56:51.924Z,32.90
2022-09-10T22:59:21.068Z,33.97
2022-09-10T23:01:50.271Z,35.95
2022-09-10T23:04:19.392Z,30.65
2022-09-10T23:06:48.552Z,33.60
2022-09-10T23:09:18.844Z,34.45
2022-09-10T23:11:48.066Z,28.50
2022-09-10T23:14:22.450Z,30.38
2022-09-10T23:16:52.612Z,34.67
2022-09-10T23:19:23.687Z,28.55
2022-09-10T23:21:56.704Z,33.38
2022-09-10T23:24:27.041Z,38.47
2022-09-10T23:26:56.518Z,32.03
2022-09-10T23:29:27.197Z,30.02
2022-09-10T23:31:56.331Z,35.00
2022-09-10T23:34:25.680Z,29.50
2022-09-10T23:36:54.848Z,37.00
2022-09-10T23:39:25.496Z,32.00
2022-09-10T23:41:57.417Z,34.88
2022-09-10T23:44:29.006Z,31.83
2022-09-10T23:46:58.085Z,35.65
2022-09-10T23:49:27.216Z,31.20
2022-09-10T23:51:56.419Z,36.22
2022-09-10T23:54:25.541Z,36.50
2022-09-10T23:56:54.666Z,35.13
2022-09-10T23:59:23.775Z,31.40
